sensor_id;sensor_type;location;lat;lon;timestamp;temperature;humidity
1992;DHT22;997;48.448;8.924;2023-03-15T04:01:42;2.30;99.90
1992;DHT22;997;48.448;8.924;2023-03-15T04:04:08;2.00;99.90
1992;DHT22;997;48.448;8.924;2023-03-15T04:06:34;1.90;99.90
1992;DHT22;997;48.448;8.924;2023-03-15T04:09:00;1.90;99.90
1992;DHT22;997;48.448;8.924;2023-03-15T04:11:28;1.90;99.90
1992;DHT22;997;48.448;8.924;2023-03-15T04:13:54;2.00;99.90
1992;DHT22;997;48.448;8.924;2023-03-15T08:56:08;4.20;99.90
1992;DHT22;997;48.448;8.924;2023-03-15T08:58:34;4.20;99.90
1992;DHT22;997;48.448;8.924;2023-03-15T11:11:21;6.90;99.90
1992;DHT22;997;48.448;8.924;2023-03-15T11:13:59;6.80;99.90
1992;DHT22;997;48.448;8.924;2023-03-15T11:16:25;6.80;99.90
1992;DHT22;997;48.448;8.924;2023-03-15T11:19:00;6.80;99.90
1992;DHT22;997;48.448;8.924;2023-03-15T11:21:32;6.90;99.90
1992;DHT22;997;48.448;8.924;2023-03-15T11:24:01;6.70;99.90
1992;DHT22;997;48.448;8.924;2023-03-15T11:26:30;6.80;99.90
1992;DHT22;997;48.448;8.924;2023-03-15T11:31:40;6.60;99.90
1992;DHT22;997;48.448;8.924;2023-03-15T11:37:02;6.70;99.90
1992;DHT22;997;48.448;8.924;2023-03-15T11:39:44;7.00;99.90
1992;DHT22;997;48.448;8.924;2023-03-15T11:42:19;7.10;99.90
1992;DHT22;997;48.448;8.924;2023-03-15T11:44:48;7.20;99.90
1992;DHT22;997;48.448;8.924;2023-03-15T11:47:48;7.30;99.90
1992;DHT22;997;48.448;8.924;2023-03-15T11:50:15;7.30;99.90
1992;DHT22;997;48.448;8.924;2023-03-15T11:52:41;7.30;99.90
1992;DHT22;997;48.448;8.924;2023-03-15T11:55:23;7.30;99.90
1992;DHT22;997;48.448;8.924;2023-03-15T11:57:49;7.30;99.90
1992;DHT22;997;48.448;8.924;2023-03-15T12:03:21;7.60;99.90
1992;DHT22;997;48.448;8.924;2023-03-15T12:16:22;8.20;99.90
1992;DHT22;997;48.448;8.924;2023-03-15T12:18:48;8.00;99.90
1992;DHT22;997;48.448;8.924;2023-03-15T12:21:30;8.00;99.90
1992;DHT22;997;48.448;8.924;2023-03-15T12:23:57;7.90;99.90
1992;DHT22;997;48.448;8.924;2023-03-15T12:26:30;8.20;99.90
1992;DHT22;997;48.448;8.924;2023-03-15T12:31:26;7.80;99.90
1992;DHT22;997;48.448;8.924;2023-03-15T12:34:21;7.90;99.90
1992;DHT22;997;48.448;8.924;2023-03-15T12:36:51;8.00;99.90
1992;DHT22;997;48.448;8.924;2023-03-15T12:41:50;7.60;99.90
1992;DHT22;997;48.448;8.924;2023-03-15T12:44:36;7.60;99.90
1992;DHT22;997;48.448;8.924;2023-03-15T12:47:05;7.60;99.90
1992;DHT22;997;48.448;8.924;2023-03-15T12:49:39;7.70;99.90
1992;DHT22;997;48.448;8.924;2023-03-15T12:58:01;7.80;99.90
1992;DHT22;997;48.448;8.924;2023-03-15T13:00:22;7.90;99.90
1992;DHT22;997;48.448;8.924;2023-03-15T13:02:52;7.80;99.90
1992;DHT22;997;48.448;8.924;2023-03-15T13:05:22;7.80;99.90
1992;DHT22;997;48.448;8.924;2023-03-15T13:15:59;8.40;99.90
1992;DHT22;997;48.448;8.924;2023-03-15T13:18:28;8.30;99.90
1992;DHT22;997;48.448;8.924;2023-03-15T13:21:27;8.20;99.90
1992;DHT22;997;48.448;8.924;2023-03-15T13:23:57;8.10;99.90
1992;DHT22;997;48.448;8.924;2023-03-15T13:29:25;8.00;99.90
1992;DHT22;997;48.448;8.924;2023-03-15T13:32:11;7.90;99.90
1992;DHT22;997;48.448;8.924;2023-03-15T13:34:39;7.70;99.90
1992;DHT22;997;48.448;8.924;2023-03-15T13:37:19;7.60;99.90
1992;DHT22;997;48.448;8.924;2023-03-15T13:40:12;7.60;99.90
1992;DHT22;997;48.448;8.924;2023-03-15T13:42:40;7.70;99.90
1992;DHT22;997;48.448;8.924;2023-03-15T13:45:14;7.80;99.90
1992;DHT22;997;48.448;8.924;2023-03-15T13:47:42;8.00;99.90
1992;DHT22;997;48.448;8.924;2023-03-15T13:50:13;8.40;99.90
1992;DHT22;997;48.448;8.924;2023-03-15T13:52:40;8.60;99.90
1992;DHT22;997;48.448;8.924;2023-03-15T13:55:07;8.80;99.90
1992;DHT22;997;48.448;8.924;2023-03-15T13:57:35;9.20;99.90
1992;DHT22;997;48.448;8.924;2023-03-15T14:00:10;9.20;99.90
1992;DHT22;997;48.448;8.924;2023-03-15T14:02:45;9.00;99.90
1992;DHT22;997;48.448;8.924;2023-03-15T14:05:17;8.80;99.90
1992;DHT22;997;48.448;8.924;2023-03-15T14:08:00;8.80;99.90
1992;DHT22;997;48.448;8.924;2023-03-15T14:10:41;9.10;99.90
1992;DHT22;997;48.448;8.924;2023-03-15T14:16:14;9.60;99.90
1992;DHT22;997;48.448;8.924;2023-03-15T14:18:41;9.30;99.90
1992;DHT22;997;48.448;8.924;2023-03-15T14:21:14;8.90;99.90
1992;DHT22;997;48.448;8.924;2023-03-15T14:23:42;8.70;99.90
1992;DHT22;997;48.448;8.924;2023-03-15T14:28:40;8.20;99.90
1992;DHT22;997;48.448;8.924;2023-03-15T14:31:18;8.00;99.90
1992;DHT22;997;48.448;8.924;2023-03-15T14:33:52;8.00;99.90
1992;DHT22;997;48.448;8.924;2023-03-15T14:36:24;7.70;99.90
1992;DHT22;997;48.448;8.924;2023-03-15T14:38:56;7.80;99.90
1992;DHT22;997;48.448;8.924;2023-03-15T14:43:52;8.10;99.90
1992;DHT22;997;48.448;8.924;2023-03-15T14:46:18;8.10;99.90
1992;DHT22;997;48.448;8.924;2023-03-15T14:48:45;8.00;99.90
1992;DHT22;997;48.448;8.924;2023-03-15T14:51:17;7.90;99.90
1992;DHT22;997;48.448;8.924;2023-03-15T14:53:43;7.70;99.90
1992;DHT22;997;48.448;8.924;2023-03-15T14:56:11;7.40;99.90
1992;DHT22;997;48.448;8.924;2023-03-15T14:58:37;7.40;99.90
1992;DHT22;997;48.448;8.924;2023-03-15T15:01:03;7.40;99.90
1992;DHT22;997;48.448;8.924;2023-03-15T15:03:40;7.30;99.90
1992;DHT22;997;48.448;8.924;2023-03-15T15:06:09;7.20;99.90
1992;DHT22;997;48.448;8.924;2023-03-15T15:08:38;7.00;99.90
1992;DHT22;997;48.448;8.924;2023-03-15T15:11:05;7.10;99.90
1992;DHT22;997;48.448;8.924;2023-03-15T15:13:33;7.10;99.90
1992;DHT22;997;48.448;8.924;2023-03-15T15:15:59;7.00;99.90
1992;DHT22;997;48.448;8.924;2023-03-15T15:18:27;7.00;99.90
1992;DHT22;997;48.448;8.924;2023-03-15T15:20:59;6.90;99.90
1992;DHT22;997;48.448;8.924;2023-03-15T15:23:31;6.90;99.90
1992;DHT22;997;48.448;8.924;2023-03-15T15:26:02;6.90;99.90
1992;DHT22;997;48.448;8.924;2023-03-15T15:28:29;6.70;99.90
1992;DHT22;997;48.448;8.924;2023-03-15T15:30:55;6.60;99.90
1992;DHT22;997;48.448;8.924;2023-03-15T15:33:21;6.60;99.90
1992;DHT22;997;48.448;8.924;2023-03-15T15:35:53;6.60;99.90
1992;DHT22;997;48.448;8.924;2023-03-15T15:38:21;6.70;99.90
1992;DHT22;997;48.448;8.924;2023-03-15T15:40:47;6.70;99.90
1992;DHT22;997;48.448;8.924;2023-03-15T15:43:13;6.70;99.90
1992;DHT22;997;48.448;8.924;2023-03-15T15:45:38;6.50;99.90
1992;DHT22;997;48.448;8.924;2023-03-15T15:48:04;6.40;99.90
1992;DHT22;997;48.448;8.924;2023-03-15T15:50:34;6.50;99.90
1992;DHT22;997;48.448;8.924;2023-03-15T15:53:03;6.30;99.90
1992;DHT22;997;48.448;8.924;2023-03-15T15:55:33;6.20;99.90
1992;DHT22;997;48.448;8.924;2023-03-15T15:57:59;6.20;99.90
1992;DHT22;997;48.448;8.924;2023-03-15T16:00:27;6.30;99.90
1992;DHT22;997;48.448;8.924;2023-03-15T16:02:53;6.50;99.90
1992;DHT22;997;48.448;8.924;2023-03-15T16:05:21;6.60;99.90
1992;DHT22;997;48.448;8.924;2023-03-15T16:07:50;6.60;99.90
1992;DHT22;997;48.448;8.924;2023-03-15T16:10:24;6.60;99.90
1992;DHT22;997;48.448;8.924;2023-03-15T16:12:51;6.70;99.90
1992;DHT22;997;48.448;8.924;2023-03-15T16:15:17;6.70;99.90
1992;DHT22;997;48.448;8.924;2023-03-15T16:17:50;6.70;99.90
1992;DHT22;997;48.448;8.924;2023-03-15T16:20:36;6.60;99.90
1992;DHT22;997;48.448;8.924;2023-03-15T16:23:02;6.50;99.90
1992;DHT22;997;48.448;8.924;2023-03-15T16:25:32;6.40;99.90
1992;DHT22;997;48.448;8.924;2023-03-15T16:28:00;6.40;99.90
1992;DHT22;997;48.448;8.924;2023-03-15T16:30:28;6.40;99.90
1992;DHT22;997;48.448;8.924;2023-03-15T16:32:55;6.60;99.90
1992;DHT22;997;48.448;8.924;2023-03-15T16:35:29;6.80;99.90
1992;DHT22;997;48.448;8.924;2023-03-15T16:37:56;7.00;99.90
1992;DHT22;997;48.448;8.924;2023-03-15T16:40:32;7.20;99.90
1992;DHT22;997;48.448;8.924;2023-03-15T16:42:59;7.20;99.90
1992;DHT22;997;48.448;8.924;2023-03-15T16:45:26;7.30;99.90
1992;DHT22;997;48.448;8.924;2023-03-15T16:47:52;7.50;99.90
1992;DHT22;997;48.448;8.924;2023-03-15T16:50:18;7.60;99.90
1992;DHT22;997;48.448;8.924;2023-03-15T16:52:45;7.80;99.90
1992;DHT22;997;48.448;8.924;2023-03-15T16:55:14;7.80;99.90
1992;DHT22;997;48.448;8.924;2023-03-15T16:57:39;7.90;99.90
1992;DHT22;997;48.448;8.924;2023-03-15T17:00:09;8.00;99.90
1992;DHT22;997;48.448;8.924;2023-03-15T17:02:37;8.00;99.90
1992;DHT22;997;48.448;8.924;2023-03-15T17:05:04;7.90;99.90
1992;DHT22;997;48.448;8.924;2023-03-15T17:07:32;7.80;99.90
1992;DHT22;997;48.448;8.924;2023-03-15T17:10:05;7.80;99.90
1992;DHT22;997;48.448;8.924;2023-03-15T17:12:32;7.80;99.90
1992;DHT22;997;48.448;8.924;2023-03-15T17:14:59;7.70;99.90
1992;DHT22;997;48.448;8.924;2023-03-15T17:17:26;7.80;99.90
1992;DHT22;997;48.448;8.924;2023-03-15T17:19:52;7.70;99.90
1992;DHT22;997;48.448;8.924;2023-03-15T17:22:18;7.70;99.90
1992;DHT22;997;48.448;8.924;2023-03-15T17:24:46;7.70;99.90
1992;DHT22;997;48.448;8.924;2023-03-15T17:32:40;7.50;99.90
1992;DHT22;997;48.448;8.924;2023-03-15T17:35:06;7.60;99.90
1992;DHT22;997;48.448;8.924;2023-03-15T17:37:34;7.40;99.90
1992;DHT22;997;48.448;8.924;2023-03-15T17:40:00;7.40;99.90
1992;DHT22;997;48.448;8.924;2023-03-15T17:42:33;7.20;99.90
1992;DHT22;997;48.448;8.924;2023-03-15T17:44:59;7.10;99.90
1992;DHT22;997;48.448;8.924;2023-03-15T17:47:25;7.10;99.90
1992;DHT22;997;48.448;8.924;2023-03-15T17:49:56;7.10;99.90
1992;DHT22;997;48.448;8.924;2023-03-15T17:52:22;7.00;99.90
1992;DHT22;997;48.448;8.924;2023-03-15T17:54:49;7.00;99.90
1992;DHT22;997;48.448;8.924;2023-03-15T17:57:15;6.90;99.90
1992;DHT22;997;48.448;8.924;2023-03-15T17:59:41;6.70;99.90
1992;DHT22;997;48.448;8.924;2023-03-15T18:02:16;6.60;99.90
1992;DHT22;997;48.448;8.924;2023-03-15T18:04:42;6.40;99.90
1992;DHT22;997;48.448;8.924;2023-03-15T18:07:07;6.30;99.90
1992;DHT22;997;48.448;8.924;2023-03-15T18:09:33;6.30;99.90
1992;DHT22;997;48.448;8.924;2023-03-15T18:11:59;6.30;99.90
1992;DHT22;997;48.448;8.924;2023-03-15T18:14:24;6.30;99.90
1992;DHT22;997;48.448;8.924;2023-03-15T18:16:50;6.30;99.90
1992;DHT22;997;48.448;8.924;2023-03-15T18:19:16;6.30;99.90
1992;DHT22;997;48.448;8.924;2023-03-15T18:21:44;6.10;99.90
1992;DHT22;997;48.448;8.924;2023-03-15T18:24:11;6.10;99.90
1992;DHT22;997;48.448;8.924;2023-03-15T18:26:37;6.10;99.90
1992;DHT22;997;48.448;8.924;2023-03-15T18:29:02;6.20;99.90
1992;DHT22;997;48.448;8.924;2023-03-15T18:31:28;6.30;99.90
1992;DHT22;997;48.448;8.924;2023-03-15T18:33:54;6.50;99.90
1992;DHT22;997;48.448;8.924;2023-03-15T18:36:20;6.50;99.90
1992;DHT22;997;48.448;8.924;2023-03-15T18:38:46;6.50;99.90
1992;DHT22;997;48.448;8.924;2023-03-15T18:41:21;6.70;99.90
1992;DHT22;997;48.448;8.924;2023-03-15T18:43:49;6.70;99.90
1992;DHT22;997;48.448;8.924;2023-03-15T18:46:21;6.70;99.90
1992;DHT22;997;48.448;8.924;2023-03-15T18:48:48;6.80;99.90
1992;DHT22;997;48.448;8.924;2023-03-15T18:51:15;6.80;99.90
1992;DHT22;997;48.448;8.924;2023-03-15T18:53:47;6.80;99.90
1992;DHT22;997;48.448;8.924;2023-03-15T18:56:23;6.90;99.90
1992;DHT22;997;48.448;8.924;2023-03-15T18:58:50;7.00;99.90
1992;DHT22;997;48.448;8.924;2023-03-15T19:01:21;6.90;99.90
1992;DHT22;997;48.448;8.924;2023-03-15T19:03:47;6.80;99.90
1992;DHT22;997;48.448;8.924;2023-03-15T19:06:13;6.70;99.90
1992;DHT22;997;48.448;8.924;2023-03-15T19:08:39;6.60;99.90
1992;DHT22;997;48.448;8.924;2023-03-15T19:11:05;6.60;99.90
1992;DHT22;997;48.448;8.924;2023-03-15T19:13:32;6.50;99.90
1992;DHT22;997;48.448;8.924;2023-03-15T19:15:58;6.40;99.90
1992;DHT22;997;48.448;8.924;2023-03-15T19:18:24;6.40;99.90
1992;DHT22;997;48.448;8.924;2023-03-15T19:20:51;6.30;99.90
1992;DHT22;997;48.448;8.924;2023-03-15T19:23:18;6.20;99.90
1992;DHT22;997;48.448;8.924;2023-03-15T19:25:45;6.20;99.90
1992;DHT22;997;48.448;8.924;2023-03-15T19:28:11;6.20;99.90
1992;DHT22;997;48.448;8.924;2023-03-15T19:30:37;6.20;99.90
1992;DHT22;997;48.448;8.924;2023-03-15T19:33:03;6.20;99.90
1992;DHT22;997;48.448;8.924;2023-03-15T19:35:28;6.20;99.90
1992;DHT22;997;48.448;8.924;2023-03-15T19:37:54;6.20;99.90
1992;DHT22;997;48.448;8.924;2023-03-15T19:40:21;6.20;99.90
1992;DHT22;997;48.448;8.924;2023-03-15T19:42:48;6.20;99.90
1992;DHT22;997;48.448;8.924;2023-03-15T19:45:14;6.10;99.90
1992;DHT22;997;48.448;8.924;2023-03-15T19:47:40;6.10;99.90
1992;DHT22;997;48.448;8.924;2023-03-15T19:50:07;6.10;99.90
1992;DHT22;997;48.448;8.924;2023-03-15T19:52:35;6.00;99.90
1992;DHT22;997;48.448;8.924;2023-03-15T19:55:03;6.00;99.90
1992;DHT22;997;48.448;8.924;2023-03-15T19:57:31;6.00;99.90
1992;DHT22;997;48.448;8.924;2023-03-15T19:59:57;6.00;99.90
1992;DHT22;997;48.448;8.924;2023-03-15T20:02:22;6.00;99.90
1992;DHT22;997;48.448;8.924;2023-03-15T20:04:48;5.90;99.90
1992;DHT22;997;48.448;8.924;2023-03-15T20:07:14;6.00;99.90
1992;DHT22;997;48.448;8.924;2023-03-15T20:09:39;5.90;99.90
1992;DHT22;997;48.448;8.924;2023-03-15T20:12:07;5.90;99.90
1992;DHT22;997;48.448;8.924;2023-03-15T20:14:33;5.80;99.90
1992;DHT22;997;48.448;8.924;2023-03-15T20:16:59;5.70;99.90
1992;DHT22;997;48.448;8.924;2023-03-15T20:19:25;5.70;99.90
1992;DHT22;997;48.448;8.924;2023-03-15T20:21:51;5.70;99.90
1992;DHT22;997;48.448;8.924;2023-03-15T20:24:16;5.70;99.90
1992;DHT22;997;48.448;8.924;2023-03-15T20:26:42;5.60;99.90
1992;DHT22;997;48.448;8.924;2023-03-15T20:29:08;5.60;99.90
1992;DHT22;997;48.448;8.924;2023-03-15T20:31:34;5.50;99.90
1992;DHT22;997;48.448;8.924;2023-03-15T20:33:59;5.60;99.90
1992;DHT22;997;48.448;8.924;2023-03-15T20:36:25;5.60;99.90
1992;DHT22;997;48.448;8.924;2023-03-15T20:38:51;5.60;99.90
1992;DHT22;997;48.448;8.924;2023-03-15T20:41:18;5.70;99.90
1992;DHT22;997;48.448;8.924;2023-03-15T20:43:44;5.70;99.90
1992;DHT22;997;48.448;8.924;2023-03-15T20:46:11;5.70;99.90
1992;DHT22;997;48.448;8.924;2023-03-15T20:48:38;5.60;99.90
1992;DHT22;997;48.448;8.924;2023-03-15T20:51:04;5.60;99.90
1992;DHT22;997;48.448;8.924;2023-03-15T20:53:32;5.60;99.90
1992;DHT22;997;48.448;8.924;2023-03-15T20:55:58;5.50;99.90
1992;DHT22;997;48.448;8.924;2023-03-15T20:58:25;5.40;99.90
1992;DHT22;997;48.448;8.924;2023-03-15T21:00:50;5.40;99.90
1992;DHT22;997;48.448;8.924;2023-03-15T21:03:16;5.40;99.90
1992;DHT22;997;48.448;8.924;2023-03-15T21:05:44;5.40;99.90
1992;DHT22;997;48.448;8.924;2023-03-15T21:08:11;5.30;99.90
1992;DHT22;997;48.448;8.924;2023-03-15T21:10:38;5.30;99.90
1992;DHT22;997;48.448;8.924;2023-03-15T21:13:04;5.30;99.90
1992;DHT22;997;48.448;8.924;2023-03-15T21:15:34;5.30;99.90
1992;DHT22;997;48.448;8.924;2023-03-15T21:18:00;5.20;99.90
1992;DHT22;997;48.448;8.924;2023-03-15T21:20:27;5.20;99.90
1992;DHT22;997;48.448;8.924;2023-03-15T21:22:52;5.20;99.90
1992;DHT22;997;48.448;8.924;2023-03-15T21:25:18;5.30;99.90
1992;DHT22;997;48.448;8.924;2023-03-15T21:27:44;5.30;99.90
1992;DHT22;997;48.448;8.924;2023-03-15T21:30:11;5.30;99.90
1992;DHT22;997;48.448;8.924;2023-03-15T21:32:41;5.30;99.90
1992;DHT22;997;48.448;8.924;2023-03-15T21:35:08;5.30;99.90
1992;DHT22;997;48.448;8.924;2023-03-15T21:37:33;5.10;99.90
1992;DHT22;997;48.448;8.924;2023-03-15T21:39:59;4.90;99.90
1992;DHT22;997;48.448;8.924;2023-03-15T21:42:25;4.70;99.90
1992;DHT22;997;48.448;8.924;2023-03-15T21:44:50;4.50;99.90
1992;DHT22;997;48.448;8.924;2023-03-15T21:47:18;4.20;99.90
1992;DHT22;997;48.448;8.924;2023-03-15T21:49:44;4.00;99.90
1992;DHT22;997;48.448;8.924;2023-03-15T21:52:10;3.90;99.90
1992;DHT22;997;48.448;8.924;2023-03-15T21:54:36;3.80;99.90
1992;DHT22;997;48.448;8.924;2023-03-15T21:57:02;3.70;99.90
1992;DHT22;997;48.448;8.924;2023-03-15T21:59:29;3.70;99.90
1992;DHT22;997;48.448;8.924;2023-03-15T22:01:55;3.60;99.90
1992;DHT22;997;48.448;8.924;2023-03-15T22:04:22;3.80;99.90
1992;DHT22;997;48.448;8.924;2023-03-15T22:06:49;3.80;99.90
1992;DHT22;997;48.448;8.924;2023-03-15T22:09:17;3.90;99.90
1992;DHT22;997;48.448;8.924;2023-03-15T22:11:43;4.00;99.90
1992;DHT22;997;48.448;8.924;2023-03-15T22:14:09;4.10;99.90
1992;DHT22;997;48.448;8.924;2023-03-15T22:16:35;4.10;99.90
1992;DHT22;997;48.448;8.924;2023-03-15T22:19:01;4.00;99.90
1992;DHT22;997;48.448;8.924;2023-03-15T22:21:29;4.00;99.90
1992;DHT22;997;48.448;8.924;2023-03-15T22:23:55;3.90;99.90
1992;DHT22;997;48.448;8.924;2023-03-15T22:26:21;3.90;99.90
1992;DHT22;997;48.448;8.924;2023-03-15T22:28:47;3.90;99.90
